Time;durP1;ratioP1;P1;durP2;ratioP2;P2;SDS_P1;SDS_P2;PMS_P1;PMS_P2;Temp;Humidity;BMP_temperature;BMP_pressure;BME280_temperature;BME280_humidity;BME280_pressure;Samples;Min_cycle;Max_cycle;Signal;HPM_P1;HPM_P2
2022/10/08 00:00:10;;;;;;;13.50;7.73;;;;;;;15.21;100.00;98363.66;5054215;28;20231;-72
2022/10/08 00:02:36;;;;;;;11.23;9.63;;;;;;;15.11;100.00;98350.06;5054517;28;20205;-72
2022/10/08 00:05:03;;;;;;;10.97;8.30;;;;;;;15.01;100.00;98357.91;5054336;28;20215;-72
2022/10/08 00:07:29;;;;;;;9.83;8.20;;;;;;;14.94;100.00;98362.59;5054368;28;20208;-72
2022/10/08 00:09:56;;;;;;;14.63;9.73;;;;;;;14.89;100.00;98362.50;5054349;28;20225;-72
2022/10/08 00:12:22;;;;;;;11.40;8.87;;;;;;;14.76;100.00;98357.44;5054262;28;20211;-72
2022/10/08 00:14:48;;;;;;;13.13;9.30;;;;;;;14.67;100.00;98358.03;5054218;28;20209;-72
2022/10/08 00:17:15;;;;;;;10.00;9.00;;;;;;;14.49;100.00;98353.66;5054263;28;20287;-72
2022/10/08 00:19:41;;;;;;;12.10;9.93;;;;;;;14.51;100.00;98354.25;5053514;28;20225;-72
2022/10/08 00:22:08;;;;;;;14.87;11.13;;;;;;;14.51;100.00;98358.78;5054214;28;20209;-72
2022/10/08 00:24:34;;;;;;;14.33;10.57;;;;;;;14.43;100.00;98361.81;5054157;28;20208;-72
2022/10/08 00:27:01;;;;;;;15.23;10.40;;;;;;;14.36;100.00;98361.94;5054364;28;20610;-72
2022/10/08 00:29:27;;;;;;;12.60;10.00;;;;;;;14.31;100.00;98358.34;5053837;28;20209;-72
2022/10/08 00:31:54;;;;;;;13.20;9.53;;;;;;;14.24;100.00;98358.47;5053943;28;20213;-72
2022/10/08 00:34:22;;;;;;;15.20;10.40;;;;;;;14.21;100.00;98358.97;5053557;28;20233;-71
2022/10/08 00:36:53;;;;;;;14.67;9.57;;;;;;;14.22;100.00;98357.09;5053912;28;20235;-72
2022/10/08 00:39:22;;;;;;;13.50;10.17;;;;;;;14.22;100.00;98354.41;5053763;28;20213;-72
2022/10/08 00:41:52;;;;;;;12.30;10.27;;;;;;;14.17;100.00;98349.75;5053530;28;20220;-72
2022/10/08 00:44:54;;;;;;;13.90;9.60;;;;;;;14.21;100.00;98342.91;5053566;28;20606;-72
2022/10/08 00:47:33;;;;;;;12.60;8.43;;;;;;;14.28;100.00;98348.94;5053808;28;20211;-72
2022/10/08 00:50:18;;;;;;;10.17;7.63;;;;;;;14.38;100.00;98349.16;5053628;28;20225;-71
2022/10/08 00:52:56;;;;;;;11.13;7.70;;;;;;;14.53;100.00;98345.97;5053503;28;20220;-71
2022/10/08 00:55:25;;;;;;;13.20;7.53;;;;;;;14.50;100.00;98339.25;5053684;28;20185;-72
2022/10/08 00:57:52;;;;;;;12.80;7.30;;;;;;;14.48;100.00;98343.19;5053632;28;20246;-72
2022/10/08 01:00:22;;;;;;;10.40;7.70;;;;;;;14.36;100.00;98342.41;5053537;28;20229;-72
2022/10/08 01:02:49;;;;;;;8.97;7.50;;;;;;;14.28;100.00;98342.75;5054008;28;20186;-72
2022/10/08 01:05:19;;;;;;;10.47;7.63;;;;;;;14.20;100.00;98338.59;5053259;28;20216;-72
2022/10/08 01:08:04;;;;;;;14.07;7.87;;;;;;;14.13;100.00;98340.56;5053583;28;20210;-72
2022/10/08 01:10:44;;;;;;;9.17;7.60;;;;;;;14.11;100.00;98337.28;5052005;28;20232;-72
2022/10/08 01:13:17;;;;;;;10.17;7.77;;;;;;;14.10;100.00;98340.19;5052227;28;20312;-72
2022/10/08 01:16:11;;;;;;;10.63;7.30;;;;;;;14.11;100.00;98329.28;5053404;28;20209;-71
2022/10/08 01:18:56;;;;;;;9.40;7.97;;;;;;;14.08;100.00;98332.44;5052442;28;20189;-72
2022/10/08 01:21:46;;;;;;;9.50;8.53;;;;;;;14.14;100.00;98331.50;5053313;28;20232;-71
2022/10/08 01:25:31;;;;;;;10.50;9.10;;;;;;;14.12;100.00;98330.91;5053881;28;20186;-72
2022/10/08 01:27:32;;;;;;;9.00;8.20;;;;;;;14.10;100.00;98337.53;5053266;28;20279;-72
2022/10/08 01:30:04;;;;;;;12.13;9.03;;;;;;;14.05;100.00;98332.88;5052174;28;20228;-71
2022/10/08 01:32:38;;;;;;;12.97;10.17;;;;;;;14.05;100.00;98326.72;5055613;28;20193;-72
2022/10/08 01:35:12;;;;;;;11.47;9.00;;;;;;;14.08;100.00;98332.44;5057961;28;20193;-72
2022/10/08 01:37:43;;;;;;;11.10;9.93;;;;;;;14.03;100.00;98332.31;5057410;28;20197;-72
2022/10/08 01:40:19;;;;;;;17.97;10.30;;;;;;;14.03;100.00;98331.50;5039690;28;20233;-72
2022/10/08 01:42:48;;;;;;;12.63;10.10;;;;;;;13.98;100.00;98329.50;5056132;28;20209;-72
2022/10/08 01:45:22;;;;;;;11.73;9.63;;;;;;;13.94;100.00;98335.56;5056029;28;20213;-72
2022/10/08 01:47:50;;;;;;;11.27;10.00;;;;;;;13.94;100.00;98331.06;5055989;28;20197;-71
2022/10/08 01:50:24;;;;;;;11.03;9.93;;;;;;;13.90;100.00;98329.88;5057054;28;20225;-72
2022/10/08 01:53:01;;;;;;;16.07;11.00;;;;;;;13.92;100.00;98327.78;5057062;28;20203;-72
2022/10/08 01:55:41;;;;;;;14.93;11.13;;;;;;;13.86;100.00;98327.91;5057155;28;20200;-72
2022/10/08 01:58:22;;;;;;;12.63;10.50;;;;;;;13.89;100.00;98322.09;5056962;28;20189;-71
2022/10/08 02:00:50;;;;;;;14.07;10.97;;;;;;;13.90;100.00;98310.34;5056893;28;20225;-71
2022/10/08 02:03:17;;;;;;;13.53;10.00;;;;;;;13.92;100.00;98314.41;5056471;28;20661;-72
2022/10/08 02:05:49;;;;;;;12.27;9.60;;;;;;;13.90;100.00;98311.19;5056541;28;20213;-71
2022/10/08 02:08:15;;;;;;;15.10;11.00;;;;;;;13.91;100.00;98315.47;5056853;28;20198;-72
2022/10/08 02:10:43;;;;;;;11.77;10.57;;;;;;;13.90;100.00;98318.38;5056639;28;20616;-72
2022/10/08 02:13:11;;;;;;;11.57;10.37;;;;;;;13.91;100.00;98314.66;5056316;28;20592;-72
2022/10/08 02:16:11;;;;;;;11.27;9.70;;;;;;;13.85;100.00;98320.94;5056685;28;20205;-72
2022/10/08 02:18:48;;;;;;;11.80;10.30;;;;;;;13.84;100.00;98313.97;5034029;28;20209;-72
2022/10/08 02:21:24;;;;;;;11.83;9.50;;;;;;;13.82;100.00;98310.69;5056450;28;20232;-72
2022/10/08 02:24:01;;;;;;;12.37;10.07;;;;;;;13.86;100.00;98307.34;5056211;28;20235;-72
2022/10/08 02:26:34;;;;;;;10.70;9.60;;;;;;;13.76;100.00;98307.13;5056446;28;20200;-72
2022/10/08 02:29:10;;;;;;;13.53;10.23;;;;;;;13.67;100.00;98307.69;5055048;28;20194;-72
2022/10/08 02:31:39;;;;;;;13.17;10.33;;;;;;;13.71;100.00;98306.97;5056338;28;20220;-72
2022/10/08 02:34:16;;;;;;;12.17;10.60;;;;;;;13.68;100.00;98302.13;5055110;28;20240;-72
2022/10/08 02:36:48;;;;;;;13.27;10.03;;;;;;;13.65;100.00;98307.91;5054860;28;20652;-71
2022/10/08 02:39:17;;;;;;;12.60;11.27;;;;;;;13.76;100.00;98301.78;5055985;28;20633;-72
2022/10/08 02:41:50;;;;;;;12.73;11.40;;;;;;;13.71;100.00;98309.66;5055647;28;20739;-72
2022/10/08 02:44:25;;;;;;;12.10;10.87;;;;;;;13.68;100.00;98310.13;5056297;28;20192;-72
2022/10/08 02:46:55;;;;;;;13.83;11.17;;;;;;;13.72;100.00;98311.31;5055462;28;20189;-72
2022/10/08 02:49:27;;;;;;;14.17;10.30;;;;;;;13.74;100.00;98313.75;5055932;28;20201;-72
2022/10/08 02:51:55;;;;;;;11.80;10.20;;;;;;;13.72;100.00;98310.47;5055965;28;20189;-72
2022/10/08 02:54:23;;;;;;;10.83;9.53;;;;;;;13.69;100.00;98317.09;5056691;28;20237;-72
2022/10/08 02:56:59;;;;;;;12.00;9.77;;;;;;;13.68;100.00;98312.81;5055568;28;20216;-72
2022/10/08 02:59:25;;;;;;;13.10;9.60;;;;;;;13.69;100.00;98322.44;5055747;28;20189;-72
2022/10/08 03:01:58;;;;;;;10.53;9.33;;;;;;;13.71;100.00;98317.66;5055602;28;20208;-72
2022/10/08 03:04:50;;;;;;;15.63;9.80;;;;;;;13.74;100.00;98314.53;5054042;28;20633;-71
2022/10/08 03:07:17;;;;;;;10.70;9.30;;;;;;;13.78;100.00;98314.88;5055515;28;20196;-71
2022/10/08 03:09:47;;;;;;;11.83;10.17;;;;;;;13.79;100.00;98325.34;5055455;28;20231;-72
2022/10/08 03:12:14;;;;;;;14.27;10.30;;;;;;;13.79;100.00;98328.00;5055192;28;20583;-71
2022/10/08 03:14:45;;;;;;;10.80;9.67;;;;;;;13.80;100.00;98318.16;5054216;28;20217;-71
2022/10/08 03:17:17;;;;;;;9.90;8.90;;;;;;;13.86;100.00;98319.88;5055500;28;20193;-72
2022/10/08 03:19:43;;;;;;;10.37;9.23;;;;;;;13.84;100.00;98322.78;5055145;28;20225;-71
2022/10/08 03:22:10;;;;;;;11.67;8.87;;;;;;;13.86;100.00;98322.56;5055386;28;20206;-71
2022/10/08 03:24:36;;;;;;;11.93;8.50;;;;;;;13.88;100.00;98326.63;5054082;28;20201;-71
2022/10/08 03:27:04;;;;;;;9.70;8.30;;;;;;;13.93;100.00;98329.41;5054729;28;20666;-71
2022/10/08 03:29:30;;;;;;;11.27;7.73;;;;;;;13.99;100.00;98323.16;5054624;28;20201;-71
2022/10/08 03:31:56;;;;;;;10.90;7.77;;;;;;;14.03;100.00;98339.53;5054900;28;20207;-71
2022/10/08 03:34:25;;;;;;;10.67;7.70;;;;;;;14.02;100.00;98335.22;5054969;28;20233;-71
2022/10/08 03:36:51;;;;;;;9.13;7.30;;;;;;;14.03;100.00;98335.00;5054510;28;20556;-71
2022/10/08 03:39:18;;;;;;;11.13;8.30;;;;;;;14.05;100.00;98343.59;5054782;28;20205;-72
2022/10/08 03:41:44;;;;;;;10.27;8.23;;;;;;;14.06;100.00;98344.41;5054314;28;20236;-72
2022/10/08 03:44:11;;;;;;;11.37;8.67;;;;;;;14.06;100.00;98350.56;5054760;28;20197;-71
2022/10/08 03:46:38;;;;;;;13.57;9.37;;;;;;;14.05;100.00;98354.28;5054838;28;20304;-71
2022/10/08 03:49:04;;;;;;;10.60;9.53;;;;;;;14.14;100.00;98362.75;5055099;28;20212;-71
2022/10/08 03:51:30;;;;;;;11.47;7.83;;;;;;;14.27;100.00;98368.72;5054541;28;20221;-71
2022/10/08 03:53:57;;;;;;;9.93;7.67;;;;;;;14.39;100.00;98361.47;5054049;28;20222;-71
2022/10/08 03:56:24;;;;;;;8.60;7.57;;;;;;;14.34;100.00;98363.25;5054465;28;20209;-71
2022/10/08 03:58:59;;;;;;;12.60;8.17;;;;;;;14.35;100.00;98363.00;5054594;28;20205;-71
2022/10/08 04:01:26;;;;;;;8.93;7.57;;;;;;;14.37;100.00;98371.59;5054494;28;20236;-71
2022/10/08 04:03:53;;;;;;;11.37;8.23;;;;;;;14.35;100.00;98365.69;5054371;28;20202;-71
2022/10/08 04:06:20;;;;;;;10.53;7.23;;;;;;;14.28;100.00;98364.97;5054300;28;20208;-72
2022/10/08 04:08:47;;;;;;;12.37;7.90;;;;;;;14.32;100.00;98374.16;5054360;28;20335;-71
2022/10/08 04:11:16;;;;;;;10.47;8.00;;;;;;;14.24;100.00;98373.72;5054318;28;20229;-71
2022/10/08 04:13:43;;;;;;;7.73;6.97;;;;;;;14.30;100.00;98370.91;5054222;28;20252;-71
2022/10/08 04:16:14;;;;;;;8.93;7.40;;;;;;;14.35;100.00;98373.72;5054285;28;20205;-71
2022/10/08 04:18:41;;;;;;;11.03;8.37;;;;;;;14.37;100.00;98381.47;5054299;28;20212;-71
2022/10/08 04:21:10;;;;;;;14.07;7.80;;;;;;;14.31;100.00;98383.25;5054234;28;20232;-71
2022/10/08 04:23:38;;;;;;;9.60;7.27;;;;;;;14.35;100.00;98370.22;5054025;28;20202;-71
2022/10/08 04:26:05;;;;;;;9.67;7.13;;;;;;;14.35;100.00;98371.03;5053887;28;20213;-71
2022/10/08 04:28:32;;;;;;;8.20;7.00;;;;;;;14.33;100.00;98373.13;5053838;28;20205;-72
2022/10/08 04:31:10;;;;;;;10.20;7.37;;;;;;;14.28;100.00;98381.03;5054066;28;20225;-71
2022/10/08 04:33:37;;;;;;;11.67;6.87;;;;;;;14.21;100.00;98385.69;5054002;28;20200;-71
2022/10/08 04:36:13;;;;;;;7.60;6.80;;;;;;;14.20;100.00;98380.56;5053891;28;20209;-71
2022/10/08 04:38:39;;;;;;;8.33;6.70;;;;;;;14.16;100.00;98388.19;5053871;28;20200;-71
2022/10/08 04:41:14;;;;;;;7.80;7.10;;;;;;;14.14;100.00;98384.97;5053491;28;20245;-71
2022/10/08 04:43:42;;;;;;;15.17;7.10;;;;;;;14.17;100.00;98387.19;5053840;28;20193;-71
2022/10/08 04:46:11;;;;;;;7.97;7.10;;;;;;;14.19;100.00;98393.09;5053441;28;20209;-71
2022/10/08 04:48:38;;;;;;;11.17;7.13;;;;;;;14.17;100.00;98387.19;5053412;28;20205;-71
2022/10/08 04:51:06;;;;;;;10.93;7.17;;;;;;;14.23;100.00;98386.28;5053425;28;20225;-71
2022/10/08 04:53:34;;;;;;;8.00;6.80;;;;;;;14.21;100.00;98392.91;5053259;28;20213;-71
2022/10/08 04:56:26;;;;;;;9.73;7.27;;;;;;;14.28;100.00;98391.72;5053399;28;20209;-71
2022/10/08 04:58:53;;;;;;;9.97;7.07;;;;;;;14.27;100.00;98395.47;5053562;28;20204;-71
2022/10/08 05:01:21;;;;;;;11.17;7.37;;;;;;;14.27;100.00;98391.97;5053446;28;20279;-71
2022/10/08 05:03:50;;;;;;;8.97;7.40;;;;;;;14.23;100.00;98406.84;5053216;28;20208;-71
2022/10/08 05:06:18;;;;;;;9.73;6.80;;;;;;;14.16;100.00;98400.78;5053181;28;20208;-72
2022/10/08 05:08:46;;;;;;;13.40;7.07;;;;;;;14.04;100.00;98392.75;5053484;28;20212;-71
2022/10/08 05:11:13;;;;;;;11.97;8.40;;;;;;;14.11;100.00;98400.66;5053102;28;20749;-71
2022/10/08 05:13:40;;;;;;;10.07;7.90;;;;;;;14.15;100.00;98401.84;5053377;28;20255;-71
2022/10/08 05:16:12;;;;;;;13.40;7.70;;;;;;;14.14;100.00;98401.00;5053053;28;20687;-71
2022/10/08 05:18:40;;;;;;;9.70;7.47;;;;;;;14.17;100.00;98411.25;5053738;28;20533;-71
2022/10/08 05:21:16;;;;;;;9.27;7.67;;;;;;;14.10;100.00;98410.53;5052914;28;20727;-71
2022/10/08 05:23:43;;;;;;;11.77;7.90;;;;;;;14.05;100.00;98409.59;5053619;28;20196;-72
2022/10/08 05:26:12;;;;;;;10.83;7.47;;;;;;;14.06;100.00;98406.69;5053202;28;20216;-71
2022/10/08 05:28:38;;;;;;;10.37;7.50;;;;;;;14.00;100.00;98412.16;5052893;28;20672;-71
2022/10/08 05:31:05;;;;;;;9.63;7.33;;;;;;;13.94;100.00;98407.75;5053228;28;20253;-71
2022/10/08 05:33:31;;;;;;;12.10;7.20;;;;;;;13.87;100.00;98409.69;5052899;28;20660;-71
2022/10/08 05:36:02;;;;;;;12.10;7.40;;;;;;;13.79;100.00;98420.75;5052741;28;20704;-71
2022/10/08 05:38:29;;;;;;;10.27;7.80;;;;;;;13.70;100.00;98424.81;5052738;28;20633;-71
2022/10/08 05:40:55;;;;;;;9.07;7.40;;;;;;;13.66;100.00;98423.63;5052680;28;20747;-72
2022/10/08 05:43:22;;;;;;;14.23;7.40;;;;;;;13.60;100.00;98422.69;5052757;28;20209;-71
2022/10/08 05:45:52;;;;;;;11.53;7.87;;;;;;;13.52;100.00;98423.00;5052923;28;20201;-71
2022/10/08 05:48:18;;;;;;;10.43;7.67;;;;;;;13.50;100.00;98430.44;5053100;28;20201;-71
2022/10/08 05:50:44;;;;;;;11.07;7.60;;;;;;;13.60;100.00;98425.34;5052939;28;20265;-71
2022/10/08 05:53:11;;;;;;;11.00;8.57;;;;;;;13.74;100.00;98426.78;5052788;28;20216;-71
2022/10/08 05:55:37;;;;;;;11.53;7.97;;;;;;;13.64;100.00;98433.72;5052854;28;20221;-72
2022/10/08 05:58:03;;;;;;;9.60;7.47;;;;;;;13.62;100.00;98435.81;5052956;28;20212;-71
2022/10/08 06:00:29;;;;;;;12.53;7.87;;;;;;;13.66;100.00;98437.78;5052869;28;20232;-71
2022/10/08 06:02:56;;;;;;;10.33;7.47;;;;;;;13.63;100.00;98434.75;5052895;28;20208;-71
2022/10/08 06:05:22;;;;;;;14.70;8.07;;;;;;;13.59;100.00;98442.44;5052765;28;20201;-71
2022/10/08 06:07:49;;;;;;;9.67;7.67;;;;;;;13.57;100.00;98441.03;5053186;28;20715;-72
2022/10/08 06:10:15;;;;;;;10.07;8.03;;;;;;;13.54;100.00;98444.16;5052473;28;20708;-71
2022/10/08 06:12:41;;;;;;;13.60;8.90;;;;;;;13.55;100.00;98446.59;5052866;28;20205;-71
2022/10/08 06:15:08;;;;;;;10.37;8.70;;;;;;;13.57;100.00;98452.50;5052716;28;20228;-71
2022/10/08 06:17:34;;;;;;;11.60;8.53;;;;;;;13.51;100.00;98457.94;5053465;28;20209;-72
2022/10/08 06:20:01;;;;;;;10.63;8.23;;;;;;;13.49;100.00;98460.88;5056389;28;20225;-71
2022/10/08 06:22:27;;;;;;;9.93;7.80;;;;;;;13.56;100.00;98458.09;5056414;28;20205;-71
2022/10/08 06:24:53;;;;;;;11.80;8.53;;;;;;;13.52;100.00;98454.25;5057117;28;20212;-71
2022/10/08 06:27:20;;;;;;;12.00;8.93;;;;;;;13.63;100.00;98469.50;5056298;28;20304;-72
2022/10/08 06:29:46;;;;;;;15.20;8.77;;;;;;;13.72;100.00;98470.78;5056231;28;20235;-71
2022/10/08 06:32:12;;;;;;;14.80;9.00;;;;;;;13.71;100.00;98467.28;5056229;28;20212;-72
2022/10/08 06:34:40;;;;;;;15.50;8.67;;;;;;;13.71;100.00;98472.66;5056128;28;20225;-71
2022/10/08 06:37:07;;;;;;;9.40;8.40;;;;;;;13.72;100.00;98468.13;5056234;28;20205;-71
2022/10/08 06:39:33;;;;;;;12.13;8.67;;;;;;;13.72;100.00;98473.47;5055861;28;20231;-71
2022/10/08 06:42:00;;;;;;;12.53;8.80;;;;;;;13.69;100.00;98473.91;5055976;28;20212;-71
2022/10/08 06:44:26;;;;;;;14.80;8.70;;;;;;;13.70;100.00;98473.69;5055952;28;20201;-71
2022/10/08 06:46:52;;;;;;;13.27;8.80;;;;;;;13.71;100.00;98479.88;5055866;28;20216;-72
2022/10/08 06:49:19;;;;;;;11.87;8.10;;;;;;;13.79;100.00;98479.53;5055898;28;20570;-72
2022/10/08 06:51:45;;;;;;;9.47;7.70;;;;;;;13.90;100.00;98492.94;5055161;28;20607;-71
2022/10/08 06:54:12;;;;;;;14.90;9.03;;;;;;;13.91;100.00;98491.06;5055359;28;20201;-71
2022/10/08 06:56:38;;;;;;;16.47;8.53;;;;;;;13.95;100.00;98490.38;5055454;28;20210;-71
2022/10/08 06:59:06;;;;;;;12.67;8.77;;;;;;;13.96;100.00;98496.53;5055453;28;20571;-71
2022/10/08 07:01:33;;;;;;;12.03;8.90;;;;;;;14.04;100.00;98497.03;5055369;28;20236;-71
2022/10/08 07:04:00;;;;;;;12.77;8.27;;;;;;;14.07;100.00;98501.09;5044633;28;20202;-71
2022/10/08 07:06:27;;;;;;;11.27;7.30;;;;;;;14.11;100.00;98500.38;5031343;28;20206;-71
2022/10/08 07:08:55;;;;;;;10.50;7.70;;;;;;;14.12;100.00;98502.03;5035536;28;20245;-71
2022/10/08 07:11:22;;;;;;;9.87;7.67;;;;;;;14.13;100.00;98503.66;5035634;28;20230;-71
2022/10/08 07:13:49;;;;;;;10.90;7.50;;;;;;;14.20;100.00;98507.06;5035319;28;20696;-71
2022/10/08 07:16:18;;;;;;;11.47;7.30;;;;;;;14.34;100.00;98511.16;5035144;28;20584;-71
2022/10/08 07:18:46;;;;;;;11.03;7.10;;;;;;;14.34;100.00;98511.16;5035249;28;20665;-71
2022/10/08 07:21:14;;;;;;;8.87;6.90;;;;;;;14.39;100.00;98519.28;5035260;28;20222;-71
2022/10/08 07:23:40;;;;;;;10.47;7.50;;;;;;;14.41;100.00;98519.06;5035130;28;20205;-71
2022/10/08 07:26:11;;;;;;;9.60;7.40;;;;;;;14.55;100.00;98520.47;5035652;28;20206;-71
2022/10/08 07:28:39;;;;;;;14.13;6.80;;;;;;;14.54;100.00;98527.69;5035137;28;20190;-71
2022/10/08 07:31:08;;;;;;;13.97;6.87;;;;;;;14.63;100.00;98530.81;5034677;28;20236;-71
2022/10/08 07:33:34;;;;;;;12.87;6.40;;;;;;;14.71;100.00;98525.13;5034964;28;20217;-71
2022/10/08 07:36:28;;;;;;;7.80;5.87;;;;;;;14.80;100.00;98523.72;5034834;28;20225;-71
2022/10/08 07:38:56;;;;;;;10.87;5.60;;;;;;;14.91;100.00;98541.63;5032235;28;20206;-71
2022/10/08 07:41:23;;;;;;;10.50;5.63;;;;;;;14.95;100.00;98538.25;5034591;28;20230;-71
2022/10/08 07:43:54;;;;;;;14.00;5.40;;;;;;;15.11;100.00;98534.03;5034758;28;20224;-71
2022/10/08 07:46:21;;;;;;;7.17;4.93;;;;;;;15.12;100.00;98546.38;5034877;28;20197;-71
2022/10/08 07:48:49;;;;;;;8.90;5.23;;;;;;;15.12;100.00;98541.00;5035696;28;20214;-71
2022/10/08 07:51:19;;;;;;;8.20;4.87;;;;;;;14.98;100.00;98543.16;5034691;28;20241;-71
2022/10/08 07:53:45;;;;;;;6.93;4.83;;;;;;;14.95;100.00;98546.28;5035209;28;20308;-72
2022/10/08 07:56:14;;;;;;;9.97;4.67;;;;;;;15.12;100.00;98549.06;5034338;28;20225;-71
2022/10/08 07:58:41;;;;;;;11.33;4.50;;;;;;;15.14;98.78;98552.28;5035008;28;20606;-71
2022/10/08 08:01:10;;;;;;;7.30;3.83;;;;;;;15.21;94.39;98550.31;5033837;28;20225;-71
2022/10/08 08:03:37;;;;;;;9.60;3.50;;;;;;;15.29;96.63;98553.44;5034317;28;20202;-71
2022/10/08 08:06:06;;;;;;;10.90;3.33;;;;;;;15.33;94.50;98551.13;5034893;28;20205;-71
2022/10/08 08:08:35;;;;;;;8.00;2.80;;;;;;;15.26;89.12;98556.59;5034320;28;20202;-71
2022/10/08 08:11:03;;;;;;;9.17;2.90;;;;;;;15.34;88.60;98563.47;5034217;28;20230;-71
2022/10/08 08:13:31;;;;;;;6.07;2.57;;;;;;;15.32;84.80;98563.69;5034216;28;20205;-71
2022/10/08 08:16:05;;;;;;;8.97;2.97;;;;;;;15.32;87.01;98568.22;5033846;28;20237;-71
2022/10/08 08:18:34;;;;;;;6.73;3.07;;;;;;;15.22;84.53;98559.97;5034353;28;20190;-71
2022/10/08 08:21:03;;;;;;;10.77;2.93;;;;;;;15.37;83.77;98563.81;5033751;28;20225;-71
2022/10/08 08:23:34;;;;;;;7.00;3.00;;;;;;;15.40;88.63;98567.88;5034246;28;20214;-71
2022/10/08 08:26:02;;;;;;;8.03;2.47;;;;;;;15.30;83.24;98568.47;5033810;28;20213;-71
2022/10/08 08:28:29;;;;;;;9.27;2.53;;;;;;;15.28;76.95;98572.44;5034060;28;20557;-71
2022/10/08 08:31:20;;;;;;;7.27;2.70;;;;;;;15.21;76.29;98571.75;5033736;28;20253;-71
2022/10/08 08:33:50;;;;;;;7.97;2.73;;;;;;;15.29;72.68;98579.44;5033648;28;20634;-71
2022/10/08 08:36:18;;;;;;;9.10;2.47;;;;;;;15.33;72.04;98586.75;5033730;28;20275;-71
2022/10/08 08:38:45;;;;;;;7.13;2.70;;;;;;;15.34;71.17;98577.69;5033918;28;20264;-72
2022/10/08 08:41:39;;;;;;;9.20;2.80;;;;;;;15.34;71.98;98585.72;5033107;28;20234;-72
2022/10/08 08:44:33;;;;;;;8.83;3.00;;;;;;;15.26;72.06;98591.44;5033797;28;20198;-72
2022/10/08 08:47:04;;;;;;;8.77;2.60;;;;;;;15.30;71.84;98587.22;5027823;28;20554;-71
2022/10/08 08:49:33;;;;;;;8.10;2.60;;;;;;;15.48;72.94;98586.28;5033384;28;20193;-72
2022/10/08 08:52:02;;;;;;;7.57;2.40;;;;;;;15.65;69.60;98589.84;5032116;28;20224;-71
2022/10/08 08:54:29;;;;;;;10.23;2.90;;;;;;;15.61;68.53;98594.84;5033556;28;20205;-72
2022/10/08 08:56:55;;;;;;;9.10;2.70;;;;;;;15.62;72.33;98591.13;5033609;28;20236;-72
2022/10/08 08:59:39;;;;;;;9.73;2.57;;;;;;;15.56;67.76;98589.38;5033537;28;20206;-73
2022/10/08 09:02:17;;;;;;;7.90;2.70;;;;;;;15.74;72.81;98591.91;5033665;28;20248;-72
2022/10/08 09:04:49;;;;;;;8.43;2.97;;;;;;;15.90;68.82;98593.84;5032427;28;20200;-72
2022/10/08 09:07:22;;;;;;;8.60;2.80;;;;;;;16.03;67.74;98596.22;5033523;28;20201;-72
2022/10/08 09:09:51;;;;;;;5.90;2.47;;;;;;;15.91;67.75;98605.34;5033490;28;20236;-72
2022/10/08 09:12:26;;;;;;;7.83;2.37;;;;;;;15.95;67.00;98607.34;5033393;28;20209;-72
2022/10/08 09:14:56;;;;;;;8.23;2.30;;;;;;;15.92;67.11;98594.38;5033360;28;20196;-72
2022/10/08 09:17:31;;;;;;;10.87;2.60;;;;;;;16.15;71.68;98593.50;5032169;28;20205;-72
2022/10/08 09:19:59;;;;;;;8.87;2.73;;;;;;;16.27;65.87;98599.59;5033208;28;20232;-71
2022/10/08 09:22:29;;;;;;;8.07;2.67;;;;;;;16.46;69.20;98596.47;5033128;28;20301;-71
2022/10/08 09:25:01;;;;;;;6.90;2.37;;;;;;;16.51;64.82;98593.06;5032878;28;20659;-70
2022/10/08 09:28:03;;;;;;;7.57;2.60;;;;;;;16.62;63.50;98594.84;5034034;28;20209;-71
2022/10/08 09:30:34;;;;;;;9.03;2.80;;;;;;;16.27;64.47;98605.78;5032733;28;20708;-72
2022/10/08 09:33:15;;;;;;;5.37;1.80;;;;;;;16.42;65.68;98605.25;5033171;28;20206;-72
2022/10/08 09:35:47;;;;;;;7.53;2.60;;;;;;;16.59;64.76;98606.06;5033089;28;20304;-72
2022/10/08 09:38:40;;;;;;;5.60;2.47;;;;;;;16.61;63.68;98604.75;5033160;28;20202;-72
2022/10/08 09:41:17;;;;;;;6.93;2.50;;;;;;;16.60;63.33;98613.88;5032613;28;20237;-72
2022/10/08 09:43:44;;;;;;;4.87;2.50;;;;;;;16.88;63.62;98608.41;5032704;28;20217;-70
2022/10/08 09:46:33;;;;;;;6.80;2.43;;;;;;;16.62;63.44;98617.16;5032698;28;20202;-71
2022/10/08 09:49:34;;;;;;;6.23;2.50;;;;;;;16.72;62.61;98606.56;5032903;28;20190;-71
2022/10/08 09:52:11;;;;;;;9.23;2.63;;;;;;;16.53;63.93;98610.56;5032905;28;20197;-71
2022/10/08 09:54:47;;;;;;;9.87;2.17;;;;;;;16.65;61.90;98611.28;5036576;28;20236;-71
2022/10/08 09:57:16;;;;;;;7.40;2.60;;;;;;;16.69;60.75;98622.38;5036389;28;20634;-71
2022/10/08 09:59:51;;;;;;;9.30;2.43;;;;;;;16.76;61.01;98606.88;5036621;28;20226;-71
2022/10/08 10:02:28;;;;;;;8.83;2.50;;;;;;;17.01;59.37;98616.16;5037107;28;20190;-71
2022/10/08 10:04:56;;;;;;;4.97;1.93;;;;;;;17.24;59.52;98615.16;5036441;28;20196;-71
2022/10/08 10:07:24;;;;;;;6.67;2.10;;;;;;;17.13;63.19;98622.25;5036323;28;20206;-71
2022/10/08 10:09:53;;;;;;;8.97;2.63;;;;;;;16.46;60.96;98622.53;5036220;28;20229;-71
2022/10/08 10:12:31;;;;;;;8.67;2.53;;;;;;;16.86;60.90;98618.59;5036138;28;20688;-71
2022/10/08 10:15:04;;;;;;;12.37;2.67;;;;;;;16.92;61.38;98619.50;5036471;28;20592;-72
2022/10/08 10:17:43;;;;;;;8.43;2.70;;;;;;;17.02;61.61;98616.97;5035280;28;20194;-72
2022/10/08 10:20:19;;;;;;;8.50;2.77;;;;;;;16.80;62.25;98630.34;5035925;28;20222;-71
2022/10/08 10:23:05;;;;;;;7.50;2.60;;;;;;;16.70;64.30;98622.09;5035730;28;20201;-71
2022/10/08 10:25:38;;;;;;;11.00;3.17;;;;;;;16.92;62.11;98616.81;5036678;28;20194;-71
2022/10/08 10:28:11;;;;;;;7.73;2.87;;;;;;;17.06;63.95;98623.47;5036730;28;20217;-71
2022/10/08 10:30:55;;;;;;;7.87;2.80;;;;;;;17.03;61.40;98624.78;5036076;28;20322;-71
2022/10/08 10:33:27;;;;;;;6.93;2.30;;;;;;;16.91;58.75;98621.38;5036878;28;20197;-71
2022/10/08 10:36:00;;;;;;;7.23;2.50;;;;;;;16.97;59.63;98619.59;5034891;28;20213;-71
2022/10/08 10:38:35;;;;;;;6.57;2.43;;;;;;;16.85;59.60;98627.72;5034906;28;20194;-72
2022/10/08 10:41:01;;;;;;;6.53;2.50;;;;;;;16.97;59.26;98628.44;5035645;28;20237;-71
2022/10/08 10:43:44;;;;;;;5.87;2.00;;;;;;;17.08;59.69;98615.97;5035521;28;20675;-71
2022/10/08 10:46:22;;;;;;;6.97;2.07;;;;;;;17.30;60.70;98622.19;5035937;28;20190;-71
2022/10/08 10:48:49;;;;;;;9.13;2.23;;;;;;;17.25;57.63;98614.06;5034709;28;20559;-71
2022/10/08 10:51:43;;;;;;;7.67;2.53;;;;;;;17.04;55.69;98628.25;5035654;28;20222;-71
2022/10/08 10:54:36;;;;;;;7.07;2.20;;;;;;;16.60;56.43;98635.34;5035583;28;20198;-71
2022/10/08 10:57:21;;;;;;;7.43;2.10;;;;;;;16.91;56.48;98623.22;5035656;28;20222;-71
2022/10/08 10:59:52;;;;;;;8.60;2.07;;;;;;;16.93;55.72;98621.13;5035413;28;20233;-71
2022/10/08 11:02:26;;;;;;;5.70;2.20;;;;;;;16.56;55.99;98628.06;5036298;28;20194;-72
2022/10/08 11:05:14;;;;;;;6.97;2.20;;;;;;;16.59;56.77;98628.38;5034786;28;20200;-71
2022/10/08 11:08:13;;;;;;;6.20;2.17;;;;;;;17.07;57.20;98620.56;5035500;28;20274;-71
2022/10/08 11:11:07;;;;;;;6.37;2.23;;;;;;;17.00;56.97;98622.59;5035136;28;20233;-71
2022/10/08 11:13:55;;;;;;;7.63;2.47;;;;;;;17.21;56.33;98629.88;5035523;28;20200;-71
2022/10/08 11:16:27;;;;;;;7.47;2.10;;;;;;;16.72;54.83;98625.38;5035241;28;20220;-72
2022/10/08 11:18:56;;;;;;;8.93;2.30;;;;;;;16.67;55.23;98627.97;5035414;28;20193;-72
2022/10/08 11:21:54;;;;;;;7.23;2.20;;;;;;;16.76;55.14;98626.50;5035286;28;20320;-72
2022/10/08 11:24:51;;;;;;;5.93;1.90;;;;;;;16.91;58.33;98624.06;5035041;28;20187;-72
2022/10/08 11:27:20;;;;;;;7.43;2.27;;;;;;;16.71;55.66;98623.75;5035048;28;20209;-72
2022/10/08 11:30:10;;;;;;;7.70;2.17;;;;;;;16.76;54.85;98623.00;5034611;28;20233;-72
2022/10/08 11:32:38;;;;;;;5.23;1.73;;;;;;;16.80;54.59;98613.41;5034970;28;20285;-72
2022/10/08 11:35:19;;;;;;;8.77;2.20;;;;;;;16.97;56.51;98619.59;5034637;28;20209;-72
2022/10/08 11:37:59;;;;;;;5.40;1.70;;;;;;;17.14;57.13;98615.00;5034443;28;20216;-72
2022/10/08 11:40:36;;;;;;;5.90;2.13;;;;;;;17.22;55.01;98620.75;5034629;28;20237;-72
2022/10/08 11:43:17;;;;;;;4.10;1.60;;;;;;;17.23;54.66;98619.69;5034643;28;20194;-72